sensor_id;sensor_type;location;lat;lon;timestamp;P1;durP1;ratioP1;P2;durP2;ratioP2
13090;SDS011;6611;52.604;13.438;2022-07-01T00:00:23;10.50;;;9.60;;
13090;SDS011;6611;52.604;13.438;2022-07-01T00:02:55;11.57;;;10.50;;
13090;SDS011;6611;52.604;13.438;2022-07-01T00:05:27;10.77;;;9.87;;
13090;SDS011;6611;52.604;13.438;2022-07-01T00:07:59;11.80;;;10.70;;
13090;SDS011;6611;52.604;13.438;2022-07-01T00:10:31;10.70;;;9.80;;
13090;SDS011;6611;52.604;13.438;2022-07-01T00:13:05;10.80;;;9.90;;
13090;SDS011;6611;52.604;13.438;2022-07-01T00:15:37;10.37;;;9.47;;
13090;SDS011;6611;52.604;13.438;2022-07-01T00:18:09;10.60;;;9.60;;
13090;SDS011;6611;52.604;13.438;2022-07-01T00:20:42;10.77;;;9.83;;
13090;SDS011;6611;52.604;13.438;2022-07-01T00:23:14;10.90;;;9.77;;
13090;SDS011;6611;52.604;13.438;2022-07-01T00:25:47;10.30;;;9.30;;
13090;SDS011;6611;52.604;13.438;2022-07-01T00:28:20;10.63;;;9.73;;
13090;SDS011;6611;52.604;13.438;2022-07-01T00:30:52;10.07;;;9.23;;
13090;SDS011;6611;52.604;13.438;2022-07-01T00:33:24;10.70;;;9.67;;
13090;SDS011;6611;52.604;13.438;2022-07-01T00:35:57;10.87;;;9.77;;
13090;SDS011;6611;52.604;13.438;2022-07-01T00:38:30;11.93;;;10.83;;
13090;SDS011;6611;52.604;13.438;2022-07-01T00:41:02;12.10;;;10.90;;
13090;SDS011;6611;52.604;13.438;2022-07-01T00:43:36;12.70;;;11.57;;
13090;SDS011;6611;52.604;13.438;2022-07-01T00:46:09;12.30;;;11.20;;
13090;SDS011;6611;52.604;13.438;2022-07-01T00:48:40;13.30;;;12.00;;
13090;SDS011;6611;52.604;13.438;2022-07-01T00:51:13;12.37;;;11.10;;
13090;SDS011;6611;52.604;13.438;2022-07-01T00:53:45;13.03;;;11.83;;
13090;SDS011;6611;52.604;13.438;2022-07-01T00:56:18;12.33;;;11.23;;
13090;SDS011;6611;52.604;13.438;2022-07-01T00:58:51;11.33;;;10.23;;
13090;SDS011;6611;52.604;13.438;2022-07-01T01:01:24;12.10;;;10.93;;
13090;SDS011;6611;52.604;13.438;2022-07-01T01:03:55;11.67;;;10.53;;
13090;SDS011;6611;52.604;13.438;2022-07-01T01:06:28;11.90;;;10.60;;
13090;SDS011;6611;52.604;13.438;2022-07-01T01:09:00;12.30;;;11.13;;
13090;SDS011;6611;52.604;13.438;2022-07-01T01:11:32;12.07;;;11.00;;
13090;SDS011;6611;52.604;13.438;2022-07-01T01:14:06;12.40;;;11.27;;
13090;SDS011;6611;52.604;13.438;2022-07-01T01:16:39;12.83;;;11.73;;
13090;SDS011;6611;52.604;13.438;2022-07-01T01:19:11;12.00;;;10.90;;
13090;SDS011;6611;52.604;13.438;2022-07-01T01:21:45;12.60;;;11.40;;
13090;SDS011;6611;52.604;13.438;2022-07-01T01:24:17;12.47;;;11.37;;
13090;SDS011;6611;52.604;13.438;2022-07-01T01:26:49;12.37;;;11.27;;
13090;SDS011;6611;52.604;13.438;2022-07-01T01:29:21;11.80;;;10.80;;
13090;SDS011;6611;52.604;13.438;2022-07-01T01:31:53;12.57;;;11.47;;
13090;SDS011;6611;52.604;13.438;2022-07-01T01:34:26;13.33;;;11.97;;
13090;SDS011;6611;52.604;13.438;2022-07-01T01:36:59;12.40;;;11.30;;
13090;SDS011;6611;52.604;13.438;2022-07-01T01:39:31;12.67;;;11.47;;
13090;SDS011;6611;52.604;13.438;2022-07-01T01:42:04;12.17;;;11.00;;
13090;SDS011;6611;52.604;13.438;2022-07-01T01:44:36;13.23;;;11.93;;
13090;SDS011;6611;52.604;13.438;2022-07-01T01:47:08;12.93;;;11.70;;
13090;SDS011;6611;52.604;13.438;2022-07-01T01:49:40;12.87;;;11.67;;
13090;SDS011;6611;52.604;13.438;2022-07-01T01:52:14;13.57;;;12.27;;
13090;SDS011;6611;52.604;13.438;2022-07-01T01:54:46;12.47;;;11.37;;
13090;SDS011;6611;52.604;13.438;2022-07-01T01:57:18;13.80;;;12.50;;
13090;SDS011;6611;52.604;13.438;2022-07-01T01:59:50;12.53;;;11.40;;
13090;SDS011;6611;52.604;13.438;2022-07-01T02:02:22;12.47;;;11.40;;
13090;SDS011;6611;52.604;13.438;2022-07-01T02:04:54;12.97;;;11.67;;
13090;SDS011;6611;52.604;13.438;2022-07-01T02:07:28;12.90;;;11.70;;
13090;SDS011;6611;52.604;13.438;2022-07-01T02:10:00;13.77;;;12.20;;
13090;SDS011;6611;52.604;13.438;2022-07-01T02:12:32;13.57;;;12.23;;
13090;SDS011;6611;52.604;13.438;2022-07-01T02:15:05;13.57;;;12.27;;
13090;SDS011;6611;52.604;13.438;2022-07-01T02:17:38;13.37;;;12.10;;
13090;SDS011;6611;52.604;13.438;2022-07-01T02:20:10;13.90;;;12.50;;
13090;SDS011;6611;52.604;13.438;2022-07-01T02:22:46;13.80;;;12.50;;
13090;SDS011;6611;52.604;13.438;2022-07-01T02:25:18;13.83;;;12.43;;
13090;SDS011;6611;52.604;13.438;2022-07-01T02:27:51;14.73;;;13.33;;
13090;SDS011;6611;52.604;13.438;2022-07-01T02:30:23;15.20;;;13.60;;
13090;SDS011;6611;52.604;13.438;2022-07-01T02:32:55;15.20;;;13.70;;
13090;SDS011;6611;52.604;13.438;2022-07-01T02:35:27;15.80;;;14.33;;
13090;SDS011;6611;52.604;13.438;2022-07-01T02:38:01;17.83;;;16.03;;
13090;SDS011;6611;52.604;13.438;2022-07-01T02:40:34;19.70;;;17.03;;
13090;SDS011;6611;52.604;13.438;2022-07-01T02:43:10;17.47;;;15.70;;
13090;SDS011;6611;52.604;13.438;2022-07-01T02:45:42;16.13;;;14.63;;
13090;SDS011;6611;52.604;13.438;2022-07-01T02:48:14;17.50;;;15.70;;
13090;SDS011;6611;52.604;13.438;2022-07-01T02:50:46;16.60;;;15.10;;
13090;SDS011;6611;52.604;13.438;2022-07-01T02:53:19;16.63;;;15.03;;
13090;SDS011;6611;52.604;13.438;2022-07-01T02:55:51;15.97;;;14.33;;
13090;SDS011;6611;52.604;13.438;2022-07-01T02:58:24;16.93;;;15.20;;
13090;SDS011;6611;52.604;13.438;2022-07-01T03:00:56;19.07;;;16.37;;
13090;SDS011;6611;52.604;13.438;2022-07-01T03:03:28;17.57;;;15.93;;
13090;SDS011;6611;52.604;13.438;2022-07-01T03:06:00;16.97;;;15.37;;
13090;SDS011;6611;52.604;13.438;2022-07-01T03:08:34;18.20;;;16.40;;
13090;SDS011;6611;52.604;13.438;2022-07-01T03:11:06;18.77;;;17.07;;
13090;SDS011;6611;52.604;13.438;2022-07-01T03:13:38;19.37;;;17.37;;
13090;SDS011;6611;52.604;13.438;2022-07-01T03:16:11;19.23;;;17.33;;
13090;SDS011;6611;52.604;13.438;2022-07-01T03:18:43;20.50;;;18.40;;
13090;SDS011;6611;52.604;13.438;2022-07-01T03:21:17;20.77;;;18.60;;
13090;SDS011;6611;52.604;13.438;2022-07-01T03:23:51;21.90;;;19.80;;
13090;SDS011;6611;52.604;13.438;2022-07-01T03:26:22;18.97;;;17.17;;
13090;SDS011;6611;52.604;13.438;2022-07-01T03:28:54;21.53;;;19.43;;
13090;SDS011;6611;52.604;13.438;2022-07-01T03:31:27;20.80;;;18.80;;
13090;SDS011;6611;52.604;13.438;2022-07-01T03:33:59;25.20;;;21.70;;
13090;SDS011;6611;52.604;13.438;2022-07-01T03:36:31;22.77;;;20.37;;
13090;SDS011;6611;52.604;13.438;2022-07-01T03:39:05;23.50;;;21.07;;
13090;SDS011;6611;52.604;13.438;2022-07-01T03:41:37;22.23;;;19.93;;
13090;SDS011;6611;52.604;13.438;2022-07-01T03:44:09;21.23;;;19.10;;
13090;SDS011;6611;52.604;13.438;2022-07-01T03:46:41;22.77;;;20.37;;
13090;SDS011;6611;52.604;13.438;2022-07-01T03:49:13;23.53;;;21.23;;
13090;SDS011;6611;52.604;13.438;2022-07-01T03:51:45;28.03;;;21.47;;
13090;SDS011;6611;52.604;13.438;2022-07-01T03:54:19;24.00;;;21.70;;
13090;SDS011;6611;52.604;13.438;2022-07-01T03:57:00;24.03;;;21.67;;
13090;SDS011;6611;52.604;13.438;2022-07-01T03:59:34;24.43;;;21.83;;
13090;SDS011;6611;52.604;13.438;2022-07-01T04:02:07;24.50;;;21.90;;
13090;SDS011;6611;52.604;13.438;2022-07-01T04:04:39;25.27;;;22.73;;
13090;SDS011;6611;52.604;13.438;2022-07-01T04:07:10;26.33;;;22.77;;
13090;SDS011;6611;52.604;13.438;2022-07-01T04:09:44;24.63;;;22.03;;
13090;SDS011;6611;52.604;13.438;2022-07-01T04:12:16;24.63;;;21.80;;
13090;SDS011;6611;52.604;13.438;2022-07-01T04:14:48;24.53;;;21.73;;
13090;SDS011;6611;52.604;13.438;2022-07-01T04:17:20;25.50;;;22.77;;
13090;SDS011;6611;52.604;13.438;2022-07-01T04:19:52;24.53;;;22.17;;
13090;SDS011;6611;52.604;13.438;2022-07-01T04:22:25;24.33;;;21.83;;
13090;SDS011;6611;52.604;13.438;2022-07-01T04:25:07;25.13;;;22.63;;
13090;SDS011;6611;52.604;13.438;2022-07-01T04:27:40;24.70;;;22.10;;
13090;SDS011;6611;52.604;13.438;2022-07-01T04:30:12;23.33;;;20.83;;
13090;SDS011;6611;52.604;13.438;2022-07-01T04:32:45;23.50;;;21.10;;
13090;SDS011;6611;52.604;13.438;2022-07-01T04:35:17;24.13;;;21.27;;
13090;SDS011;6611;52.604;13.438;2022-07-01T04:37:49;24.03;;;21.63;;
13090;SDS011;6611;52.604;13.438;2022-07-01T04:40:22;23.17;;;20.87;;
13090;SDS011;6611;52.604;13.438;2022-07-01T04:42:55;23.57;;;21.13;;
13090;SDS011;6611;52.604;13.438;2022-07-01T04:45:26;23.30;;;20.93;;
13090;SDS011;6611;52.604;13.438;2022-07-01T04:47:58;24.17;;;21.77;;
13090;SDS011;6611;52.604;13.438;2022-07-01T04:50:30;24.07;;;21.57;;
13090;SDS011;6611;52.604;13.438;2022-07-01T04:53:02;23.47;;;20.97;;
13090;SDS011;6611;52.604;13.438;2022-07-01T04:55:35;22.67;;;20.27;;
13090;SDS011;6611;52.604;13.438;2022-07-01T04:58:07;23.57;;;20.30;;
13090;SDS011;6611;52.604;13.438;2022-07-01T05:00:39;23.30;;;20.97;;
13090;SDS011;6611;52.604;13.438;2022-07-01T05:03:11;23.53;;;21.33;;
13090;SDS011;6611;52.604;13.438;2022-07-01T05:05:43;24.23;;;21.73;;
13090;SDS011;6611;52.604;13.438;2022-07-01T05:08:15;24.23;;;21.77;;
13090;SDS011;6611;52.604;13.438;2022-07-01T05:10:49;24.60;;;21.83;;
13090;SDS011;6611;52.604;13.438;2022-07-01T05:13:21;25.07;;;21.97;;
13090;SDS011;6611;52.604;13.438;2022-07-01T05:15:53;22.70;;;20.40;;
13090;SDS011;6611;52.604;13.438;2022-07-01T05:18:25;23.13;;;20.77;;
13090;SDS011;6611;52.604;13.438;2022-07-01T05:21:15;23.57;;;21.07;;
13090;SDS011;6611;52.604;13.438;2022-07-01T05:24:05;22.60;;;20.50;;
13090;SDS011;6611;52.604;13.438;2022-07-01T05:26:39;24.17;;;21.60;;
13090;SDS011;6611;52.604;13.438;2022-07-01T05:29:11;22.43;;;20.27;;
13090;SDS011;6611;52.604;13.438;2022-07-01T05:31:43;23.20;;;20.90;;
13090;SDS011;6611;52.604;13.438;2022-07-01T05:34:15;22.57;;;20.27;;
13090;SDS011;6611;52.604;13.438;2022-07-01T05:36:47;21.87;;;19.57;;
13090;SDS011;6611;52.604;13.438;2022-07-01T05:39:19;20.93;;;18.93;;
13090;SDS011;6611;52.604;13.438;2022-07-01T05:41:52;20.90;;;18.80;;
13090;SDS011;6611;52.604;13.438;2022-07-01T05:44:24;19.80;;;17.87;;
13090;SDS011;6611;52.604;13.438;2022-07-01T05:46:56;19.60;;;17.60;;
13090;SDS011;6611;52.604;13.438;2022-07-01T05:49:28;20.20;;;18.20;;
13090;SDS011;6611;52.604;13.438;2022-07-01T05:52:00;20.20;;;18.10;;
13090;SDS011;6611;52.604;13.438;2022-07-01T05:54:33;21.80;;;19.63;;
13090;SDS011;6611;52.604;13.438;2022-07-01T05:57:06;19.27;;;17.50;;
13090;SDS011;6611;52.604;13.438;2022-07-01T05:59:38;19.90;;;17.80;;
13090;SDS011;6611;52.604;13.438;2022-07-01T06:02:10;19.83;;;17.73;;
13090;SDS011;6611;52.604;13.438;2022-07-01T06:04:42;20.37;;;18.27;;
13090;SDS011;6611;52.604;13.438;2022-07-01T06:07:14;20.00;;;18.10;;
13090;SDS011;6611;52.604;13.438;2022-07-01T06:09:46;19.13;;;17.23;;
13090;SDS011;6611;52.604;13.438;2022-07-01T06:12:20;18.33;;;16.63;;
13090;SDS011;6611;52.604;13.438;2022-07-01T06:14:51;17.90;;;16.20;;
13090;SDS011;6611;52.604;13.438;2022-07-01T06:17:23;18.87;;;17.00;;
13090;SDS011;6611;52.604;13.438;2022-07-01T06:19:56;18.15;;;16.35;;
13090;SDS011;6611;52.604;13.438;2022-07-01T06:22:28;18.07;;;16.23;;
13090;SDS011;6611;52.604;13.438;2022-07-01T06:25:00;18.53;;;16.83;;
13090;SDS011;6611;52.604;13.438;2022-07-01T06:27:34;17.77;;;15.97;;
13090;SDS011;6611;52.604;13.438;2022-07-01T06:30:09;19.90;;;16.57;;
13090;SDS011;6611;52.604;13.438;2022-07-01T06:32:42;18.53;;;16.63;;
13090;SDS011;6611;52.604;13.438;2022-07-01T06:35:14;18.00;;;16.20;;
13090;SDS011;6611;52.604;13.438;2022-07-01T06:37:46;17.87;;;16.00;;
13090;SDS011;6611;52.604;13.438;2022-07-01T06:40:18;18.97;;;17.17;;
13090;SDS011;6611;52.604;13.438;2022-07-01T06:42:51;18.30;;;16.70;;
13090;SDS011;6611;52.604;13.438;2022-07-01T06:45:25;19.03;;;17.23;;
13090;SDS011;6611;52.604;13.438;2022-07-01T06:47:57;20.37;;;18.47;;
13090;SDS011;6611;52.604;13.438;2022-07-01T06:50:29;19.77;;;17.77;;
13090;SDS011;6611;52.604;13.438;2022-07-01T06:53:02;20.87;;;18.87;;
13090;SDS011;6611;52.604;13.438;2022-07-01T06:55:34;20.30;;;18.40;;
13090;SDS011;6611;52.604;13.438;2022-07-01T06:58:07;21.43;;;19.33;;
13090;SDS011;6611;52.604;13.438;2022-07-01T07:00:39;19.87;;;17.83;;
13090;SDS011;6611;52.604;13.438;2022-07-01T07:03:11;20.53;;;18.53;;
13090;SDS011;6611;52.604;13.438;2022-07-01T07:05:43;19.60;;;17.80;;
13090;SDS011;6611;52.604;13.438;2022-07-01T07:08:16;21.97;;;18.43;;
13090;SDS011;6611;52.604;13.438;2022-07-01T07:10:47;20.67;;;18.63;;
13090;SDS011;6611;52.604;13.438;2022-07-01T07:13:23;19.10;;;17.30;;
13090;SDS011;6611;52.604;13.438;2022-07-01T07:15:55;18.77;;;16.98;;
13090;SDS011;6611;52.604;13.438;2022-07-01T07:18:27;19.40;;;17.47;;
13090;SDS011;6611;52.604;13.438;2022-07-01T07:20:59;19.67;;;17.77;;
13090;SDS011;6611;52.604;13.438;2022-07-01T07:23:32;19.08;;;17.17;;
13090;SDS011;6611;52.604;13.438;2022-07-01T07:26:04;20.37;;;18.13;;
13090;SDS011;6611;52.604;13.438;2022-07-01T07:28:37;20.33;;;18.23;;
13090;SDS011;6611;52.604;13.438;2022-07-01T07:31:09;18.63;;;16.83;;
13090;SDS011;6611;52.604;13.438;2022-07-01T07:33:41;19.27;;;17.38;;
13090;SDS011;6611;52.604;13.438;2022-07-01T07:36:13;19.40;;;17.33;;
13090;SDS011;6611;52.604;13.438;2022-07-01T07:38:45;19.45;;;17.45;;
13090;SDS011;6611;52.604;13.438;2022-07-01T07:41:17;18.58;;;16.77;;
13090;SDS011;6611;52.604;13.438;2022-07-01T07:43:51;17.05;;;15.45;;
13090;SDS011;6611;52.604;13.438;2022-07-01T07:46:23;16.77;;;15.10;;
13090;SDS011;6611;52.604;13.438;2022-07-01T07:48:55;15.70;;;14.07;;
13090;SDS011;6611;52.604;13.438;2022-07-01T07:51:27;16.60;;;14.80;;
13090;SDS011;6611;52.604;13.438;2022-07-01T07:53:59;16.10;;;14.52;;
13090;SDS011;6611;52.604;13.438;2022-07-01T07:56:32;14.25;;;12.95;;
13090;SDS011;6611;52.604;13.438;2022-07-01T07:59:05;13.35;;;11.95;;
13090;SDS011;6611;52.604;13.438;2022-07-01T08:01:37;11.93;;;9.98;;
13090;SDS011;6611;52.604;13.438;2022-07-01T08:04:10;11.15;;;9.98;;
13090;SDS011;6611;52.604;13.438;2022-07-01T08:06:42;11.68;;;10.52;;
13090;SDS011;6611;52.604;13.438;2022-07-01T08:09:14;10.88;;;9.85;;
13090;SDS011;6611;52.604;13.438;2022-07-01T08:11:46;11.55;;;10.45;;
13090;SDS011;6611;52.604;13.438;2022-07-01T08:14:20;13.10;;;11.73;;
13090;SDS011;6611;52.604;13.438;2022-07-01T08:16:52;13.65;;;12.25;;
13090;SDS011;6611;52.604;13.438;2022-07-01T08:19:23;12.90;;;11.60;;
13090;SDS011;6611;52.604;13.438;2022-07-01T08:21:55;11.38;;;10.38;;
13090;SDS011;6611;52.604;13.438;2022-07-01T08:24:27;13.25;;;10.55;;
13090;SDS011;6611;52.604;13.438;2022-07-01T08:27:00;12.50;;;11.25;;
13090;SDS011;6611;52.604;13.438;2022-07-01T08:29:33;12.02;;;10.98;;
13090;SDS011;6611;52.604;13.438;2022-07-01T08:32:05;11.18;;;10.18;;
13090;SDS011;6611;52.604;13.438;2022-07-01T08:34:38;10.43;;;9.52;;
13090;SDS011;6611;52.604;13.438;2022-07-01T08:37:10;11.23;;;10.13;;
13090;SDS011;6611;52.604;13.438;2022-07-01T08:39:42;11.17;;;9.63;;
13090;SDS011;6611;52.604;13.438;2022-07-01T08:42:13;9.95;;;8.95;;
13090;SDS011;6611;52.604;13.438;2022-07-01T08:44:47;10.48;;;9.40;;
13090;SDS011;6611;52.604;13.438;2022-07-01T08:47:19;11.00;;;9.93;;
13090;SDS011;6611;52.604;13.438;2022-07-01T08:49:51;10.93;;;9.82;;
13090;SDS011;6611;52.604;13.438;2022-07-01T08:52:23;11.13;;;10.07;;
13090;SDS011;6611;52.604;13.438;2022-07-01T08:54:55;11.02;;;9.93;;
13090;SDS011;6611;52.604;13.438;2022-07-01T08:57:27;11.70;;;10.50;;
13090;SDS011;6611;52.604;13.438;2022-07-01T09:00:02;11.82;;;9.88;;
13090;SDS011;6611;52.604;13.438;2022-07-01T09:02:54;10.18;;;9.20;;
13090;SDS011;6611;52.604;13.438;2022-07-01T09:05:27;10.57;;;9.48;;
13090;SDS011;6611;52.604;13.438;2022-07-01T09:08:00;10.80;;;9.80;;
13090;SDS011;6611;52.604;13.438;2022-07-01T09:10:34;10.60;;;9.60;;
13090;SDS011;6611;52.604;13.438;2022-07-01T09:13:06;10.98;;;10.02;;
13090;SDS011;6611;52.604;13.438;2022-07-01T09:15:41;11.23;;;10.23;;
13090;SDS011;6611;52.604;13.438;2022-07-01T09:18:13;11.18;;;10.07;;
13090;SDS011;6611;52.604;13.438;2022-07-01T09:20:48;11.48;;;10.57;;
13090;SDS011;6611;52.604;13.438;2022-07-01T09:23:21;11.20;;;10.10;;
13090;SDS011;6611;52.604;13.438;2022-07-01T09:25:52;10.63;;;9.52;;
13090;SDS011;6611;52.604;13.438;2022-07-01T09:28:25;12.57;;;10.68;;
13090;SDS011;6611;52.604;13.438;2022-07-01T09:30:59;10.80;;;9.68;;
13090;SDS011;6611;52.604;13.438;2022-07-01T09:33:31;11.30;;;10.13;;
13090;SDS011;6611;52.604;13.438;2022-07-01T09:36:03;11.48;;;10.07;;
13090;SDS011;6611;52.604;13.438;2022-07-01T09:38:35;11.70;;;10.50;;
13090;SDS011;6611;52.604;13.438;2022-07-01T09:41:18;11.45;;;10.35;;
13090;SDS011;6611;52.604;13.438;2022-07-01T09:43:55;7.38;;;6.60;;
13090;SDS011;6611;52.604;13.438;2022-07-01T09:46:36;8.98;;;4.90;;
13090;SDS011;6611;52.604;13.438;2022-07-01T09:49:08;6.10;;;4.43;;
13090;SDS011;6611;52.604;13.438;2022-07-01T09:51:40;9.27;;;4.13;;
13090;SDS011;6611;52.604;13.438;2022-07-01T09:54:13;6.30;;;3.90;;
13090;SDS011;6611;52.604;13.438;2022-07-01T09:56:45;4.37;;;3.00;;
13090;SDS011;6611;52.604;13.438;2022-07-01T09:59:17;4.30;;;2.77;;
13090;SDS011;6611;52.604;13.438;2022-07-01T10:01:50;3.73;;;2.10;;
13090;SDS011;6611;52.604;13.438;2022-07-01T10:04:23;3.37;;;2.37;;
13090;SDS011;6611;52.604;13.438;2022-07-01T10:07:01;3.17;;;2.03;;
13090;SDS011;6611;52.604;13.438;2022-07-01T10:09:52;2.13;;;1.60;;
13090;SDS011;6611;52.604;13.438;2022-07-01T10:12:30;4.27;;;1.80;;
13090;SDS011;6611;52.604;13.438;2022-07-01T10:15:04;1.63;;;1.53;;
13090;SDS011;6611;52.604;13.438;2022-07-01T10:17:40;2.17;;;1.30;;
13090;SDS011;6611;52.604;13.438;2022-07-01T10:20:13;2.27;;;1.87;;
13090;SDS011;6611;52.604;13.438;2022-07-01T10:22:46;3.70;;;2.07;;
13090;SDS011;6611;52.604;13.438;2022-07-01T10:25:31;2.20;;;1.53;;
13090;SDS011;6611;52.604;13.438;2022-07-01T10:28:13;1.93;;;1.80;;
13090;SDS011;6611;52.604;13.438;2022-07-01T10:30:49;2.13;;;1.70;;
13090;SDS011;6611;52.604;13.438;2022-07-01T10:33:42;1.80;;;1.60;;
13090;SDS011;6611;52.604;13.438;2022-07-01T10:36:18;2.30;;;2.10;;
13090;SDS011;6611;52.604;13.438;2022-07-01T10:39:07;2.33;;;1.60;;
13090;SDS011;6611;52.604;13.438;2022-07-01T10:41:41;1.60;;;1.50;;
13090;SDS011;6611;52.604;13.438;2022-07-01T10:44:25;1.40;;;1.30;;
13090;SDS011;6611;52.604;13.438;2022-07-01T10:47:01;1.63;;;1.50;;
13090;SDS011;6611;52.604;13.438;2022-07-01T10:49:54;1.60;;;1.50;;
13090;SDS011;6611;52.604;13.438;2022-07-01T10:52:26;1.60;;;1.50;;
13090;SDS011;6611;52.604;13.438;2022-07-01T10:54:59;1.77;;;1.50;;
13090;SDS011;6611;52.604;13.438;2022-07-01T10:57:32;1.80;;;1.70;;
13090;SDS011;6611;52.604;13.438;2022-07-01T11:00:25;1.70;;;1.60;;
13090;SDS011;6611;52.604;13.438;2022-07-01T11:03:05;1.73;;;1.60;;
13090;SDS011;6611;52.604;13.438;2022-07-01T11:05:50;1.50;;;1.40;;
13090;SDS011;6611;52.604;13.438;2022-07-01T11:08:22;2.50;;;1.23;;
13090;SDS011;6611;52.604;13.438;2022-07-01T11:10:55;1.40;;;1.30;;
13090;SDS011;6611;52.604;13.438;2022-07-01T11:13:29;2.20;;;1.20;;
13090;SDS011;6611;52.604;13.438;2022-07-01T11:16:01;3.23;;;1.00;;
13090;SDS011;6611;52.604;13.438;2022-07-01T11:18:33;0.97;;;0.90;;
13090;SDS011;6611;52.604;13.438;2022-07-01T11:21:07;1.90;;;1.10;;
13090;SDS011;6611;52.604;13.438;2022-07-01T11:23:39;1.23;;;0.97;;
13090;SDS011;6611;52.604;13.438;2022-07-01T11:26:21;1.03;;;0.80;;
13090;SDS011;6611;52.604;13.438;2022-07-01T11:28:54;1.17;;;0.93;;
13090;SDS011;6611;52.604;13.438;2022-07-01T11:31:26;0.97;;;0.73;;
13090;SDS011;6611;52.604;13.438;2022-07-01T11:33:59;1.13;;;0.60;;
13090;SDS011;6611;52.604;13.438;2022-07-01T11:36:33;1.90;;;0.67;;
13090;SDS011;6611;52.604;13.438;2022-07-01T11:39:31;3.50;;;0.70;;
13090;SDS011;6611;52.604;13.438;2022-07-01T11:42:05;1.70;;;0.57;;
13090;SDS011;6611;52.604;13.438;2022-07-01T11:44:39;3.37;;;0.97;;
13090;SDS011;6611;52.604;13.438;2022-07-01T11:47:12;2.20;;;0.70;;
13090;SDS011;6611;52.604;13.438;2022-07-01T11:49:53;2.10;;;0.60;;
13090;SDS011;6611;52.604;13.438;2022-07-01T11:52:27;1.57;;;0.87;;
13090;SDS011;6611;52.604;13.438;2022-07-01T11:54:59;2.97;;;0.73;;
13090;SDS011;6611;52.604;13.438;2022-07-01T11:57:31;0.70;;;0.60;;
13090;SDS011;6611;52.604;13.438;2022-07-01T12:00:08;0.87;;;0.70;;
13090;SDS011;6611;52.604;13.438;2022-07-01T12:02:40;1.57;;;0.50;;
13090;SDS011;6611;52.604;13.438;2022-07-01T12:05:12;0.50;;;0.50;;
13090;SDS011;6611;52.604;13.438;2022-07-01T12:07:46;0.90;;;0.60;;
13090;SDS011;6611;52.604;13.438;2022-07-01T12:10:20;1.10;;;0.70;;
13090;SDS011;6611;52.604;13.438;2022-07-01T12:12:54;0.70;;;0.70;;
13090;SDS011;6611;52.604;13.438;2022-07-01T12:15:26;0.93;;;0.60;;
13090;SDS011;6611;52.604;13.438;2022-07-01T12:18:05;1.37;;;0.70;;
13090;SDS011;6611;52.604;13.438;2022-07-01T12:20:37;0.73;;;0.60;;
13090;SDS011;6611;52.604;13.438;2022-07-01T12:23:13;0.97;;;0.70;;
13090;SDS011;6611;52.604;13.438;2022-07-01T12:25:46;1.00;;;0.80;;
13090;SDS011;6611;52.604;13.438;2022-07-01T12:28:26;1.10;;;0.90;;
13090;SDS011;6611;52.604;13.438;2022-07-01T12:31:02;1.00;;;0.90;;
13090;SDS011;6611;52.604;13.438;2022-07-01T12:33:37;1.10;;;1.00;;
13090;SDS011;6611;52.604;13.438;2022-07-01T12:36:09;1.40;;;1.30;;
13090;SDS011;6611;52.604;13.438;2022-07-01T12:38:46;1.43;;;1.30;;
13090;SDS011;6611;52.604;13.438;2022-07-01T12:41:27;1.87;;;1.50;;
13090;SDS011;6611;52.604;13.438;2022-07-01T12:43:59;2.03;;;1.70;;
13090;SDS011;6611;52.604;13.438;2022-07-01T12:46:32;1.80;;;1.70;;
13090;SDS011;6611;52.604;13.438;2022-07-01T12:49:04;2.40;;;2.20;;
13090;SDS011;6611;52.604;13.438;2022-07-01T12:51:36;2.33;;;2.13;;
13090;SDS011;6611;52.604;13.438;2022-07-01T12:54:10;2.57;;;2.37;;
13090;SDS011;6611;52.604;13.438;2022-07-01T12:56:59;2.50;;;2.30;;
13090;SDS011;6611;52.604;13.438;2022-07-01T12:59:31;2.40;;;2.20;;
13090;SDS011;6611;52.604;13.438;2022-07-01T13:02:04;2.90;;;2.53;;
13090;SDS011;6611;52.604;13.438;2022-07-01T13:04:36;2.87;;;2.67;;
13090;SDS011;6611;52.604;13.438;2022-07-01T13:07:08;2.73;;;2.53;;
13090;SDS011;6611;52.604;13.438;2022-07-01T13:09:41;2.50;;;2.30;;
13090;SDS011;6611;52.604;13.438;2022-07-01T13:12:13;3.27;;;3.07;;
13090;SDS011;6611;52.604;13.438;2022-07-01T13:14:45;2.93;;;2.73;;
13090;SDS011;6611;52.604;13.438;2022-07-01T13:17:18;2.60;;;2.40;;
13090;SDS011;6611;52.604;13.438;2022-07-01T13:19:50;3.10;;;2.90;;
13090;SDS011;6611;52.604;13.438;2022-07-01T13:22:22;3.07;;;2.77;;
13090;SDS011;6611;52.604;13.438;2022-07-01T13:24:56;3.30;;;3.00;;
13090;SDS011;6611;52.604;13.438;2022-07-01T13:27:28;3.10;;;2.90;;
13090;SDS011;6611;52.604;13.438;2022-07-01T13:30:00;3.90;;;3.60;;
13090;SDS011;6611;52.604;13.438;2022-07-01T13:32:33;3.23;;;3.03;;
13090;SDS011;6611;52.604;13.438;2022-07-01T13:35:06;3.20;;;3.00;;
13090;SDS011;6611;52.604;13.438;2022-07-01T13:37:38;3.37;;;3.17;;
13090;SDS011;6611;52.604;13.438;2022-07-01T13:40:12;3.13;;;2.93;;
13090;SDS011;6611;52.604;13.438;2022-07-01T13:42:44;3.50;;;3.20;;
13090;SDS011;6611;52.604;13.438;2022-07-01T13:45:17;4.07;;;3.73;;
13090;SDS011;6611;52.604;13.438;2022-07-01T13:47:49;3.20;;;3.00;;
13090;SDS011;6611;52.604;13.438;2022-07-01T13:50:21;3.60;;;3.30;;
13090;SDS011;6611;52.604;13.438;2022-07-01T13:52:53;3.17;;;2.93;;
13090;SDS011;6611;52.604;13.438;2022-07-01T13:55:27;3.23;;;2.90;;
13090;SDS011;6611;52.604;13.438;2022-07-01T13:57:59;2.60;;;2.40;;
13090;SDS011;6611;52.604;13.438;2022-07-01T14:00:31;2.80;;;2.53;;
13090;SDS011;6611;52.604;13.438;2022-07-01T14:03:03;2.90;;;2.70;;
13090;SDS011;6611;52.604;13.438;2022-07-01T14:05:36;2.97;;;2.70;;
13090;SDS011;6611;52.604;13.438;2022-07-01T14:08:08;2.80;;;2.60;;
13090;SDS011;6611;52.604;13.438;2022-07-01T14:10:41;2.83;;;2.63;;
13090;SDS011;6611;52.604;13.438;2022-07-01T14:13:14;2.73;;;2.53;;
13090;SDS011;6611;52.604;13.438;2022-07-01T14:15:46;2.67;;;2.47;;
13090;SDS011;6611;52.604;13.438;2022-07-01T14:18:19;2.90;;;2.70;;
13090;SDS011;6611;52.604;13.438;2022-07-01T14:20:51;2.77;;;2.57;;
13090;SDS011;6611;52.604;13.438;2022-07-01T14:23:23;3.00;;;2.70;;
13090;SDS011;6611;52.604;13.438;2022-07-01T14:25:57;2.93;;;2.50;;
13090;SDS011;6611;52.604;13.438;2022-07-01T14:28:29;2.90;;;2.70;;
13090;SDS011;6611;52.604;13.438;2022-07-01T14:31:01;3.43;;;2.60;;
13090;SDS011;6611;52.604;13.438;2022-07-01T14:33:33;2.70;;;2.47;;
13090;SDS011;6611;52.604;13.438;2022-07-01T14:36:06;2.17;;;2.03;;
13090;SDS011;6611;52.604;13.438;2022-07-01T14:38:38;2.20;;;2.10;;
13090;SDS011;6611;52.604;13.438;2022-07-01T14:41:11;2.30;;;2.10;;
13090;SDS011;6611;52.604;13.438;2022-07-01T14:43:43;2.53;;;2.33;;
13090;SDS011;6611;52.604;13.438;2022-07-01T14:46:16;2.40;;;2.20;;
13090;SDS011;6611;52.604;13.438;2022-07-01T14:48:48;2.47;;;2.27;;
13090;SDS011;6611;52.604;13.438;2022-07-01T14:51:20;2.10;;;2.00;;
13090;SDS011;6611;52.604;13.438;2022-07-01T14:53:52;3.87;;;3.17;;
13090;SDS011;6611;52.604;13.438;2022-07-01T14:56:26;4.20;;;3.73;;
13090;SDS011;6611;52.604;13.438;2022-07-01T14:58:58;3.30;;;2.97;;
13090;SDS011;6611;52.604;13.438;2022-07-01T15:01:30;2.50;;;2.30;;
13090;SDS011;6611;52.604;13.438;2022-07-01T15:04:02;2.73;;;2.53;;
13090;SDS011;6611;52.604;13.438;2022-07-01T15:06:34;5.13;;;2.93;;